Time;durP1;ratioP1;P1;durP2;ratioP2;P2;SDS_P1;SDS_P2;PMS_P1;PMS_P2;Temp;Humidity;BMP_temperature;BMP_pressure;BME280_temperature;BME280_humidity;BME280_pressure;Samples;Min_cycle;Max_cycle;Signal;HPM_P1;HPM_P2
2022/04/05 00:08:31;;;;;;;10.50;8.80;;;;;;;1.74;68.27;97073.69;434194;1267;108917;-41
2022/04/05 00:28:46;;;;;;;9.80;8.00;;;;;;;1.69;70.30;97045.27;434225;1266;110272;-41
2022/04/05 00:38:53;;;;;;;17.70;13.50;;;;;;;1.61;71.21;97034.53;434173;1266;108909;-40
2022/04/05 00:49:03;;;;;;;20.20;13.80;;;;;;;1.50;72.36;97018.44;434317;1268;108703;-41
2022/04/05 00:59:13;;;;;;;18.10;13.30;;;;;;;1.60;72.26;97017.13;434097;1265;96145;-41
2022/04/05 01:19:40;;;;;;;19.30;12.20;;;;;;;1.71;73.67;96992.17;430947;1274;109240;-41
2022/04/05 01:39:54;;;;;;;14.20;9.80;;;;;;;1.68;74.45;96983.94;431236;1274;96140;-41
2022/04/05 01:50:02;;;;;;;14.90;10.60;;;;;;;1.72;75.09;96972.08;431270;1274;110121;-40
2022/04/05 02:00:15;;;;;;;11.40;9.70;;;;;;;1.84;75.17;96970.56;431158;1273;109208;-43
2022/04/05 02:10:22;;;;;;;13.70;9.20;;;;;;;1.92;75.52;96964.05;431099;1274;98182;-41
2022/04/05 02:30:34;;;;;;;17.50;13.30;;;;;;;2.02;76.05;96958.92;431366;1274;98007;-41
2022/04/05 02:40:42;;;;;;;19.00;13.50;;;;;;;1.93;76.34;96957.08;431082;1274;97520;-41
2022/04/05 02:50:49;;;;;;;12.70;10.20;;;;;;;1.98;76.41;96958.37;431093;1274;111172;-42
2022/04/05 03:00:56;;;;;;;12.60;10.60;;;;;;;2.07;76.68;96964.09;430893;1274;109119;-41
2022/04/05 03:11:03;;;;;;;11.20;9.60;;;;;;;2.16;76.70;96963.05;431076;1274;97945;-41
2022/04/05 03:21:11;;;;;;;13.40;10.40;;;;;;;2.24;76.66;96947.95;431121;1274;106910;-40
2022/04/05 03:41:25;;;;;;;18.70;13.70;;;;;;;2.25;76.80;96938.51;431323;1274;111099;-42
2022/04/05 03:51:32;;;;;;;16.10;11.90;;;;;;;2.25;77.53;96942.57;431339;1274;109007;-41
2022/04/05 04:01:38;;;;;;;19.00;12.00;;;;;;;2.34;77.73;96938.08;431203;1274;97865;-42
2022/04/05 04:11:46;;;;;;;14.30;10.70;;;;;;;2.40;77.36;96944.77;431037;1272;111062;-40
2022/04/05 04:21:53;;;;;;;17.30;13.10;;;;;;;2.44;77.57;96946.72;431064;1274;108966;-42
2022/04/05 04:32:01;;;;;;;24.80;18.60;;;;;;;2.36;77.62;96946.60;431220;1274;97935;-41
2022/04/05 04:42:09;;;;;;;22.30;16.90;;;;;;;2.25;77.71;96956.96;431232;1274;109689;-41
2022/04/05 04:52:16;;;;;;;16.70;13.50;;;;;;;2.23;77.81;96961.92;431053;1274;108964;-43
2022/04/05 05:12:30;;;;;;;13.30;11.40;;;;;;;2.21;78.17;96961.35;431247;1274;110608;-41
2022/04/05 05:22:37;;;;;;;13.70;10.90;;;;;;;2.22;78.36;96964.39;431070;1274;108830;-40
2022/04/05 05:42:50;;;;;;;19.60;14.90;;;;;;;2.27;78.67;96973.83;431112;1274;108967;-43
2022/04/05 05:52:59;;;;;;;20.00;13.90;;;;;;;2.28;79.12;96986.73;431159;1274;97551;-42
2022/04/05 06:03:06;;;;;;;16.40;12.80;;;;;;;2.42;79.16;96988.59;431170;1274;97926;-40
2022/04/05 06:13:15;;;;;;;13.80;11.40;;;;;;;2.61;78.99;96994.61;430866;1274;107817;-40
2022/04/05 06:23:22;;;;;;;15.10;11.90;;;;;;;2.79;79.19;97000.41;431148;1274;97947;-41
2022/04/05 06:33:30;;;;;;;22.10;13.70;;;;;;;2.96;79.18;97011.69;431081;1274;111096;-41
2022/04/05 06:43:38;;;;;;;20.90;14.90;;;;;;;2.95;79.53;97011.30;430878;1276;108797;-42
2022/04/05 06:53:45;;;;;;;14.60;10.70;;;;;;;3.04;79.27;97019.29;430928;1274;97510;-40
2022/04/05 07:13:59;;;;;;;11.50;9.60;;;;;;;3.33;79.40;97029.64;430919;1274;97919;-40
2022/04/05 07:24:07;;;;;;;18.40;14.00;;;;;;;3.41;79.60;97029.93;430961;1274;111052;-40
2022/04/05 07:34:14;;;;;;;18.50;15.00;;;;;;;3.39;79.67;97038.59;430958;1274;108869;-41
2022/04/05 07:44:21;;;;;;;15.90;10.80;;;;;;;3.47;79.76;97048.60;430992;1274;97965;-40
2022/04/05 07:54:28;;;;;;;10.80;9.70;;;;;;;3.60;79.69;97053.74;431071;1274;108865;-41
2022/04/05 08:04:35;;;;;;;15.60;10.70;;;;;;;3.75;79.87;97061.59;431055;1274;97555;-41
2022/04/05 08:14:42;;;;;;;12.50;8.40;;;;;;;3.89;80.01;97067.33;430915;1274;111442;-40
2022/04/05 08:24:49;;;;;;;16.60;11.80;;;;;;;3.93;80.01;97075.34;431028;1274;108685;-42
2022/04/05 08:34:57;;;;;;;19.00;13.30;;;;;;;3.94;79.90;97084.31;431200;1274;97930;-40
2022/04/05 08:55:10;;;;;;;15.80;7.30;;;;;;;4.16;79.66;97111.36;430989;1274;109657;-43
2022/04/05 09:05:25;;;;;;;9.70;7.70;;;;;;;4.38;80.10;97111.46;430888;1274;97824;-40
2022/04/05 09:15:41;;;;;;;11.90;5.80;;;;;;;4.77;80.12;97114.11;426845;1274;5403584;-42
2022/04/05 09:25:54;;;;;;;12.90;8.90;;;;;;;4.99;80.13;97118.87;430888;1274;98031;-42
2022/04/05 09:46:14;;;;;;;4.70;3.80;;;;;;;5.44;80.68;97130.92;430902;1274;108980;-42
2022/04/05 09:56:23;;;;;;;3.70;3.40;;;;;;;5.48;80.56;97129.50;431026;1274;97527;-40
2022/04/05 10:06:31;;;;;;;12.80;7.00;;;;;;;5.37;80.53;97144.05;431084;1274;109382;-43
2022/04/05 10:16:39;;;;;;;5.40;4.60;;;;;;;5.32;80.52;97150.14;430843;1274;97092;-40
2022/04/05 10:26:50;;;;;;;4.40;3.00;;;;;;;5.29;80.52;97161.73;430993;1274;111024;-41
2022/04/05 10:37:16;;;;;;;4.70;2.90;;;;;;;5.22;80.48;97177.20;430801;1274;108747;-41
2022/04/05 10:47:23;;;;;;;4.30;3.50;;;;;;;5.08;80.66;97182.81;431111;1274;97915;-41
2022/04/05 10:58:08;;;;;;;3.00;2.50;;;;;;;5.22;80.85;97188.89;431110;1274;110514;-41
2022/04/05 11:08:23;;;;;;;4.40;2.80;;;;;;;5.34;80.80;97198.25;431146;1274;97953;-42
2022/04/05 11:18:33;;;;;;;3.00;2.80;;;;;;;5.98;81.13;97188.77;430838;1274;111213;-40
2022/04/05 11:28:47;;;;;;;8.20;6.30;;;;;;;5.97;81.03;97192.14;431087;1274;108806;-42
2022/04/05 11:49:05;;;;;;;5.60;3.10;;;;;;;5.47;81.07;97219.59;430974;1273;108880;-41
2022/04/05 11:59:14;;;;;;;4.00;2.80;;;;;;;5.25;81.15;97235.08;431130;1274;97929;-40
2022/04/05 12:19:30;;;;;;;5.60;3.30;;;;;;;5.95;81.69;97238.55;430782;1274;108823;-40
2022/04/05 12:39:48;;;;;;;8.60;5.90;;;;;;;6.88;81.36;97239.79;430664;1274;111166;-41
2022/04/05 12:49:58;;;;;;;18.10;11.00;;;;;;;7.00;80.82;97244.54;430891;1274;107633;-41
2022/04/05 13:00:11;;;;;;;39.90;20.00;;;;;;;6.61;80.51;97244.80;430863;1274;97832;-41
2022/04/05 13:10:17;;;;;;;15.50;9.50;;;;;;;6.46;80.28;97253.66;430950;1274;108624;-42
2022/04/05 13:30:41;;;;;;;17.80;10.20;;;;;;;6.37;80.17;97250.66;431006;1274;110760;-41
2022/04/05 13:40:48;;;;;;;11.60;6.50;;;;;;;6.60;80.14;97252.21;430983;1274;108933;-40
2022/04/05 14:01:01;;;;;;;16.00;9.90;;;;;;;6.75;79.37;97257.80;431010;1276;111080;-45
2022/04/05 14:11:09;;;;;;;9.20;7.30;;;;;;;6.82;79.06;97260.02;431131;1274;108785;-41
2022/04/05 14:21:34;;;;;;;5.80;4.30;;;;;;;6.91;78.72;97260.43;431032;1274;97926;-40
2022/04/05 14:51:57;;;;;;;9.40;7.90;;;;;;;6.97;78.04;97247.65;431070;1274;110179;-41
2022/04/05 15:02:03;;;;;;;10.30;6.20;;;;;;;6.88;77.59;97256.48;430838;1274;109312;-40
2022/04/05 15:12:11;;;;;;;7.30;5.10;;;;;;;6.82;77.30;97268.47;431070;1274;97935;-43
2022/04/05 15:22:18;;;;;;;10.90;7.30;;;;;;;6.61;77.17;97264.40;431088;1274;108608;-40
2022/04/05 15:32:25;;;;;;;15.30;7.60;;;;;;;6.48;77.04;97270.59;430944;1274;96710;-41
2022/04/05 15:42:32;;;;;;;8.70;4.50;;;;;;;6.40;76.83;97265.48;430838;1277;110933;-44
2022/04/05 15:52:41;;;;;;;7.50;4.10;;;;;;;6.38;76.74;97264.23;430958;1274;108991;-41
2022/04/05 16:02:54;;;;;;;13.30;6.60;;;;;;;6.28;76.74;97281.05;431062;1274;96628;-41
2022/04/05 16:13:01;;;;;;;27.90;13.90;;;;;;;6.08;76.68;97282.59;430963;1274;108890;-43
2022/04/05 16:23:08;;;;;;;10.70;4.00;;;;;;;6.03;76.70;97289.47;431119;1274;98038;-41
2022/04/05 16:33:15;;;;;;;9.00;4.80;;;;;;;5.99;76.75;97292.79;431028;1274;111698;-40
2022/04/05 16:43:22;;;;;;;16.40;9.00;;;;;;;5.93;76.80;97295.33;430981;1274;108684;-43
2022/04/05 16:53:29;;;;;;;18.50;9.50;;;;;;;5.77;76.86;97300.77;430904;1274;98490;-42
2022/04/05 17:03:37;;;;;;;7.60;4.20;;;;;;;5.66;76.82;97300.68;430872;1276;108965;-41
2022/04/05 17:13:46;;;;;;;11.10;3.70;;;;;;;5.63;76.89;97309.63;430940;1274;97955;-41
2022/04/05 17:23:53;;;;;;;12.00;6.70;;;;;;;5.59;77.00;97325.19;431072;1274;110867;-39
2022/04/05 17:34:01;;;;;;;11.80;6.70;;;;;;;5.42;77.21;97331.59;431125;1274;108983;-41
2022/04/05 17:44:08;;;;;;;8.00;5.40;;;;;;;5.29;77.32;97338.36;430997;1274;97939;-40
2022/04/05 17:54:17;;;;;;;13.40;7.60;;;;;;;5.26;77.47;97345.38;430945;1274;108935;-41
2022/04/05 18:04:24;;;;;;;14.60;8.20;;;;;;;5.24;77.76;97353.36;431051;1274;97944;-42
2022/04/05 18:14:31;;;;;;;13.90;8.40;;;;;;;5.20;78.08;97369.13;430912;1274;110042;-41
2022/04/05 18:24:38;;;;;;;17.60;10.40;;;;;;;5.07;78.46;97384.78;431098;1274;108758;-40
2022/04/05 18:34:46;;;;;;;14.60;10.50;;;;;;;4.98;78.82;97390.13;431280;1274;96706;-42
2022/04/05 18:44:53;;;;;;;19.70;12.30;;;;;;;4.95;78.98;97401.45;431065;1274;107169;-41
2022/04/05 18:54:59;;;;;;;21.60;11.30;;;;;;;4.93;79.35;97397.86;430972;1274;97625;-41
2022/04/05 19:05:19;;;;;;;10.90;8.50;;;;;;;4.98;79.43;97407.57;431187;1274;110191;-40
2022/04/05 19:15:27;;;;;;;20.30;11.40;;;;;;;4.97;79.72;97410.64;431044;1274;108791;-39
2022/04/05 19:25:34;;;;;;;16.00;9.20;;;;;;;4.89;80.05;97416.05;430754;1276;98069;-40
2022/04/05 19:35:41;;;;;;;14.00;7.90;;;;;;;4.86;80.02;97421.09;431144;1274;109175;-43
2022/04/05 19:45:49;;;;;;;12.40;8.80;;;;;;;4.89;80.00;97416.94;430939;1273;98019;-40
2022/04/05 19:55:56;;;;;;;13.80;7.70;;;;;;;4.97;80.23;97412.94;430884;1276;111147;-41
2022/04/05 20:06:04;;;;;;;15.90;9.10;;;;;;;4.98;80.34;97420.63;430964;1274;108950;-41
2022/04/05 20:26:36;;;;;;;25.20;11.50;;;;;;;5.08;80.67;97393.19;430978;1274;108682;-41
2022/04/05 20:36:43;;;;;;;20.40;13.20;;;;;;;5.13;80.72;97383.42;430781;1274;98038;-40
2022/04/05 20:46:51;;;;;;;61.70;27.80;;;;;;;5.02;80.82;97378.07;431073;1274;111175;-41
2022/04/05 20:56:58;;;;;;;42.00;23.30;;;;;;;4.92;80.83;97371.32;431019;1274;109593;-41
2022/04/05 21:27:19;;;;;;;27.90;19.30;;;;;;;5.12;81.32;97326.92;430986;1274;97536;-41
2022/04/05 21:37:25;;;;;;;35.50;22.10;;;;;;;5.08;81.48;97297.69;430807;1276;110914;-41
2022/04/05 21:47:32;;;;;;;26.30;18.20;;;;;;;5.10;81.54;97295.67;431046;1274;107547;-42
2022/04/05 21:57:40;;;;;;;26.00;17.10;;;;;;;5.15;81.67;97305.55;431075;1274;97922;-41
2022/04/05 22:07:47;;;;;;;25.40;16.50;;;;;;;5.08;81.63;97301.73;431058;1274;108709;-42
2022/04/05 22:17:54;;;;;;;19.90;13.40;;;;;;;5.04;81.83;97291.15;431175;1274;96677;-40
2022/04/05 22:28:01;;;;;;;18.30;13.10;;;;;;;5.07;81.97;97280.83;431081;1274;111098;-41
2022/04/05 22:38:06;;;;;;;19.60;15.00;;;;;;;5.13;82.18;97291.44;431281;1274;108905;-41
2022/04/05 22:48:12;;;;;;;18.80;14.70;;;;;;;5.24;82.37;97288.64;431086;1274;97616;-41
2022/04/05 22:58:19;;;;;;;13.20;11.80;;;;;;;5.30;82.25;97280.63;430678;1276;108934;-44
2022/04/05 23:08:27;;;;;;;13.20;11.10;;;;;;;5.28;82.42;97278.48;431299;1274;97945;-41
2022/04/05 23:18:33;;;;;;;10.90;9.50;;;;;;;5.35;82.70;97286.50;431054;1274;110746;-41
2022/04/05 23:28:41;;;;;;;13.60;9.50;;;;;;;5.44;82.94;97285.23;431278;1274;108947;-42
2022/04/05 23:38:48;;;;;;;10.50;9.00;;;;;;;5.48;82.85;97278.10;431052;1273;97745;-41
2022/04/05 23:48:55;;;;;;;13.40;10.60;;;;;;;5.53;83.02;97280.60;431159;1274;109916;-40
